createdAt,value
2019-06-27T00:01:02.825Z,24.4
2019-06-27T00:11:06.456Z,24.1
2019-06-27T00:21:10.070Z,24.1
2019-06-27T00:31:13.563Z,24
2019-06-27T00:41:17.123Z,23.7
2019-06-27T00:51:20.653Z,23.7
2019-06-27T01:01:24.202Z,23.5
2019-06-27T01:11:27.741Z,23.4
2019-06-27T01:21:31.315Z,23.4
2019-06-27T01:31:34.810Z,23.4
2019-06-27T01:41:38.340Z,23.1
2019-06-27T01:51:41.873Z,23
2019-06-27T02:01:45.354Z,22.9
2019-06-27T02:11:48.891Z,22.7
2019-06-27T02:21:52.516Z,22.7
2019-06-27T02:31:55.998Z,22.6
2019-06-27T02:41:59.497Z,22.7
2019-06-27T02:52:03.057Z,22.6
2019-06-27T03:02:06.616Z,22.4
2019-06-27T03:12:10.155Z,22.1
2019-06-27T03:22:13.748Z,22.1
2019-06-27T03:32:17.313Z,22
2019-06-27T03:42:20.871Z,21.9
2019-06-27T03:52:24.414Z,21.8
2019-06-27T04:02:27.968Z,22
2019-06-27T04:12:31.496Z,22
2019-06-27T04:22:35.027Z,22.2
2019-06-27T04:32:38.603Z,22.2
2019-06-27T04:42:42.129Z,22.2
2019-06-27T04:52:45.703Z,22.3
2019-06-27T05:02:49.269Z,23.3
2019-06-27T05:12:52.831Z,27.9
2019-06-27T05:22:56.402Z,27.1
2019-06-27T05:32:59.892Z,25.4
2019-06-27T05:43:03.387Z,24.8
2019-06-27T05:53:06.907Z,24.7
2019-06-27T06:03:10.424Z,25.4
2019-06-27T06:13:13.948Z,25.2
2019-06-27T06:23:17.463Z,25.6
2019-06-27T06:33:21.014Z,25.7
2019-06-27T06:43:24.465Z,26.2
2019-06-27T06:53:27.970Z,26.6
2019-06-27T07:03:31.487Z,27.1
2019-06-27T07:13:34.974Z,27.5
2019-06-27T07:23:38.484Z,27.7
2019-06-27T07:33:42.024Z,28
2019-06-27T07:43:45.552Z,28.4
2019-06-27T07:53:49.029Z,28.7
2019-06-27T08:03:52.549Z,29
2019-06-27T08:13:56.142Z,29.3
2019-06-27T08:23:59.645Z,29.8
2019-06-27T08:34:03.192Z,30.1
2019-06-27T08:44:06.638Z,30.3
2019-06-27T08:54:10.065Z,30.5
2019-06-27T09:04:13.612Z,30.9
2019-06-27T09:14:17.139Z,31
2019-06-27T09:24:20.681Z,31.4
2019-06-27T09:34:24.344Z,31.6
2019-06-27T09:44:27.862Z,32
2019-06-27T09:54:31.333Z,32.2
2019-06-27T10:04:34.838Z,32.3
2019-06-27T10:14:38.344Z,32.6
2019-06-27T10:24:41.862Z,32.8
2019-06-27T10:34:45.373Z,32.8
2019-06-27T10:44:48.946Z,33.1
2019-06-27T10:54:52.575Z,33.2
2019-06-27T11:04:56.075Z,33.3
2019-06-27T11:14:59.907Z,33.3
2019-06-27T11:25:03.479Z,33.5
2019-06-27T11:35:07.028Z,33.3
2019-06-27T11:45:10.538Z,33.5
2019-06-27T11:55:14.051Z,33.5
2019-06-27T12:05:17.579Z,33.7
2019-06-27T12:15:21.193Z,33.6
2019-06-27T12:25:24.724Z,33.5
2019-06-27T12:35:28.204Z,33.5
2019-06-27T12:45:31.892Z,33.6
2019-06-27T12:55:35.418Z,33.5
2019-06-27T13:05:38.892Z,33.2
2019-06-27T13:15:42.394Z,33.6
2019-06-27T13:25:45.912Z,33.6
2019-06-27T13:35:49.473Z,33.5
2019-06-27T13:45:52.984Z,33.3
2019-06-27T13:55:56.498Z,33.2
2019-06-27T14:05:59.985Z,33.4
2019-06-27T14:16:05.891Z,33.5
2019-06-27T14:26:09.684Z,33.5
2019-06-27T14:36:13.202Z,33.3
2019-06-27T14:46:16.727Z,33.1
2019-06-27T14:56:20.252Z,32.9
2019-06-27T15:06:23.759Z,32.6
2019-06-27T15:16:27.300Z,32.4
2019-06-27T15:26:30.887Z,32.5
2019-06-27T15:36:34.425Z,32.8
2019-06-27T15:46:37.940Z,32.8
2019-06-27T15:56:41.582Z,32.4
2019-06-27T16:06:45.143Z,32.2
2019-06-27T16:16:48.730Z,32.2
2019-06-27T16:26:52.261Z,32.3
2019-06-27T16:36:55.789Z,32.2
2019-06-27T16:46:59.255Z,32.2
2019-06-27T16:57:02.737Z,32.2
2019-06-27T17:07:06.191Z,32.1
2019-06-27T17:17:09.644Z,31.8
2019-06-27T17:27:13.174Z,31.7
2019-06-27T17:37:18.662Z,31.6
2019-06-27T17:47:22.474Z,31.4
2019-06-27T17:57:26.005Z,31.3
2019-06-27T18:07:29.536Z,31.1
2019-06-27T18:17:34.178Z,30.9
2019-06-27T18:27:37.837Z,30.7
2019-06-27T18:37:41.351Z,30.6
2019-06-27T18:47:44.812Z,30.5
2019-06-27T18:57:48.340Z,30.3
2019-06-27T19:07:51.795Z,30.2
2019-06-27T19:17:55.262Z,30
2019-06-27T19:27:58.776Z,29.8
2019-06-27T19:38:02.976Z,29.6
2019-06-27T19:48:06.761Z,29.6
2019-06-27T19:58:10.283Z,29.4
2019-06-27T20:08:19.366Z,29.2
2019-06-27T20:18:23.823Z,29
2019-06-27T20:28:27.330Z,28.8
2019-06-27T20:38:35.095Z,28.6
2019-06-27T20:48:39.054Z,28.5
2019-06-27T20:58:42.571Z,28.2
2019-06-27T21:08:51.030Z,28.2
2019-06-27T21:18:55.527Z,27.9
2019-06-27T21:28:59.023Z,27.8
2019-06-27T21:39:07.366Z,27.7
2019-06-27T21:49:11.799Z,27.7
2019-06-27T21:59:15.314Z,27.4
2019-06-27T22:09:24.781Z,27.2
2019-06-27T22:19:29.094Z,27.1
2019-06-27T22:29:32.589Z,27
2019-06-27T22:39:40.221Z,27
2019-06-27T22:49:44.569Z,27
2019-06-27T22:59:48.064Z,26.8
2019-06-27T23:09:56.723Z,26.7
2019-06-27T23:20:01.257Z,26.6
2019-06-27T23:30:05.085Z,26.5
2019-06-27T23:40:13.808Z,26.3
2019-06-27T23:50:18.772Z,26.2
